sensor_id;sensor_type;location;lat;lon;timestamp;P1;durP1;ratioP1;P2;durP2;ratioP2
39982;SDS011;25670;44.782;10.356;2023-07-31T00:01:06;10.80;;;5.50;;
39982;SDS011;25670;44.782;10.356;2023-07-31T00:03:32;9.20;;;5.60;;
39982;SDS011;25670;44.782;10.356;2023-07-31T00:05:58;5.70;;;5.40;;
39982;SDS011;25670;44.782;10.356;2023-07-31T00:08:25;5.55;;;5.10;;
39982;SDS011;25670;44.782;10.356;2023-07-31T00:10:51;7.43;;;4.50;;
39982;SDS011;25670;44.782;10.356;2023-07-31T00:13:18;4.97;;;4.57;;
39982;SDS011;25670;44.782;10.356;2023-07-31T00:15:44;6.43;;;4.97;;
39982;SDS011;25670;44.782;10.356;2023-07-31T00:18:11;5.15;;;4.75;;
39982;SDS011;25670;44.782;10.356;2023-07-31T00:20:37;9.80;;;5.13;;
39982;SDS011;25670;44.782;10.356;2023-07-31T00:23:03;6.90;;;5.43;;
39982;SDS011;25670;44.782;10.356;2023-07-31T00:25:29;6.47;;;5.15;;
39982;SDS011;25670;44.782;10.356;2023-07-31T00:27:55;5.82;;;5.22;;
39982;SDS011;25670;44.782;10.356;2023-07-31T00:30:22;6.90;;;6.20;;
39982;SDS011;25670;44.782;10.356;2023-07-31T00:32:48;5.80;;;5.40;;
39982;SDS011;25670;44.782;10.356;2023-07-31T00:35:14;7.75;;;6.00;;
39982;SDS011;25670;44.782;10.356;2023-07-31T00:37:40;4.85;;;4.45;;
39982;SDS011;25670;44.782;10.356;2023-07-31T00:40:07;6.10;;;5.47;;
39982;SDS011;25670;44.782;10.356;2023-07-31T00:42:34;6.78;;;6.03;;
39982;SDS011;25670;44.782;10.356;2023-07-31T00:45:00;5.43;;;5.00;;
39982;SDS011;25670;44.782;10.356;2023-07-31T00:47:26;5.68;;;5.13;;
39982;SDS011;25670;44.782;10.356;2023-07-31T00:49:53;6.40;;;5.80;;
39982;SDS011;25670;44.782;10.356;2023-07-31T00:52:19;6.05;;;5.57;;
39982;SDS011;25670;44.782;10.356;2023-07-31T00:54:46;6.18;;;5.68;;
39982;SDS011;25670;44.782;10.356;2023-07-31T00:57:13;7.78;;;6.72;;
39982;SDS011;25670;44.782;10.356;2023-07-31T00:59:39;6.25;;;5.75;;
39982;SDS011;25670;44.782;10.356;2023-07-31T01:02:05;6.93;;;6.18;;
39982;SDS011;25670;44.782;10.356;2023-07-31T01:04:31;7.90;;;6.32;;
39982;SDS011;25670;44.782;10.356;2023-07-31T01:12:09;7.15;;;6.68;;
39982;SDS011;25670;44.782;10.356;2023-07-31T01:14:50;7.57;;;6.97;;
39982;SDS011;25670;44.782;10.356;2023-07-31T01:17:18;9.10;;;8.35;;
39982;SDS011;25670;44.782;10.356;2023-07-31T01:19:44;9.32;;;8.63;;
39982;SDS011;25670;44.782;10.356;2023-07-31T01:22:24;10.93;;;10.02;;
39982;SDS011;25670;44.782;10.356;2023-07-31T01:30:51;12.32;;;11.30;;
39982;SDS011;25670;44.782;10.356;2023-07-31T01:33:19;14.10;;;12.75;;
39982;SDS011;25670;44.782;10.356;2023-07-31T01:35:45;11.95;;;10.95;;
39982;SDS011;25670;44.782;10.356;2023-07-31T01:38:14;12.52;;;11.38;;
39982;SDS011;25670;44.782;10.356;2023-07-31T01:40:41;9.55;;;8.57;;
39982;SDS011;25670;44.782;10.356;2023-07-31T01:43:09;10.65;;;9.55;;
39982;SDS011;25670;44.782;10.356;2023-07-31T01:45:35;8.35;;;7.63;;
39982;SDS011;25670;44.782;10.356;2023-07-31T01:48:01;8.27;;;7.68;;
39982;SDS011;25670;44.782;10.356;2023-07-31T01:50:28;8.68;;;7.82;;
39982;SDS011;25670;44.782;10.356;2023-07-31T01:52:54;9.32;;;8.52;;
39982;SDS011;25670;44.782;10.356;2023-07-31T01:55:21;9.90;;;7.55;;
39982;SDS011;25670;44.782;10.356;2023-07-31T01:57:47;7.88;;;7.13;;
39982;SDS011;25670;44.782;10.356;2023-07-31T02:00:14;8.02;;;7.32;;
39982;SDS011;25670;44.782;10.356;2023-07-31T02:02:40;11.88;;;7.68;;
39982;SDS011;25670;44.782;10.356;2023-07-31T02:05:06;9.50;;;8.65;;
39982;SDS011;25670;44.782;10.356;2023-07-31T02:07:33;8.75;;;8.15;;
39982;SDS011;25670;44.782;10.356;2023-07-31T02:09:59;8.13;;;7.55;;
39982;SDS011;25670;44.782;10.356;2023-07-31T02:12:25;9.35;;;8.65;;
39982;SDS011;25670;44.782;10.356;2023-07-31T02:14:51;8.43;;;7.82;;
39982;SDS011;25670;44.782;10.356;2023-07-31T02:17:18;9.52;;;8.77;;
39982;SDS011;25670;44.782;10.356;2023-07-31T02:19:44;10.02;;;9.10;;
39982;SDS011;25670;44.782;10.356;2023-07-31T02:22:11;11.57;;;9.20;;
39982;SDS011;25670;44.782;10.356;2023-07-31T02:24:37;10.13;;;9.07;;
39982;SDS011;25670;44.782;10.356;2023-07-31T02:27:03;11.32;;;10.40;;
39982;SDS011;25670;44.782;10.356;2023-07-31T02:29:30;10.80;;;9.77;;
39982;SDS011;25670;44.782;10.356;2023-07-31T02:31:56;10.82;;;9.95;;
39982;SDS011;25670;44.782;10.356;2023-07-31T02:34:23;11.73;;;10.57;;
39982;SDS011;25670;44.782;10.356;2023-07-31T02:36:49;12.32;;;11.30;;
39982;SDS011;25670;44.782;10.356;2023-07-31T02:39:15;13.02;;;12.05;;
39982;SDS011;25670;44.782;10.356;2023-07-31T02:41:41;13.38;;;11.65;;
39982;SDS011;25670;44.782;10.356;2023-07-31T02:44:08;13.23;;;12.18;;
39982;SDS011;25670;44.782;10.356;2023-07-31T02:46:36;13.18;;;11.80;;
39982;SDS011;25670;44.782;10.356;2023-07-31T02:49:02;15.38;;;13.88;;
39982;SDS011;25670;44.782;10.356;2023-07-31T02:51:29;14.55;;;13.18;;
39982;SDS011;25670;44.782;10.356;2023-07-31T02:53:55;23.80;;;13.75;;
39982;SDS011;25670;44.782;10.356;2023-07-31T02:56:21;16.23;;;14.15;;
39982;SDS011;25670;44.782;10.356;2023-07-31T02:58:48;13.38;;;11.82;;
39982;SDS011;25670;44.782;10.356;2023-07-31T03:01:14;12.60;;;11.30;;
39982;SDS011;25670;44.782;10.356;2023-07-31T03:03:42;12.52;;;11.40;;
39982;SDS011;25670;44.782;10.356;2023-07-31T03:06:08;13.00;;;12.00;;
39982;SDS011;25670;44.782;10.356;2023-07-31T03:08:36;13.45;;;12.38;;
39982;SDS011;25670;44.782;10.356;2023-07-31T03:11:02;13.75;;;12.13;;
39982;SDS011;25670;44.782;10.356;2023-07-31T03:13:28;15.55;;;12.15;;
39982;SDS011;25670;44.782;10.356;2023-07-31T03:15:55;16.20;;;12.60;;
39982;SDS011;25670;44.782;10.356;2023-07-31T03:18:21;15.32;;;13.48;;
39982;SDS011;25670;44.782;10.356;2023-07-31T03:20:47;14.25;;;12.95;;
39982;SDS011;25670;44.782;10.356;2023-07-31T03:23:14;18.38;;;13.93;;
39982;SDS011;25670;44.782;10.356;2023-07-31T03:25:41;14.60;;;13.52;;
39982;SDS011;25670;44.782;10.356;2023-07-31T03:28:27;13.57;;;12.40;;
39982;SDS011;25670;44.782;10.356;2023-07-31T03:30:54;14.75;;;13.15;;
39982;SDS011;25670;44.782;10.356;2023-07-31T03:33:20;14.90;;;13.43;;
39982;SDS011;25670;44.782;10.356;2023-07-31T03:35:46;15.85;;;14.35;;
39982;SDS011;25670;44.782;10.356;2023-07-31T03:38:13;13.85;;;12.85;;
39982;SDS011;25670;44.782;10.356;2023-07-31T03:40:39;15.55;;;14.13;;
39982;SDS011;25670;44.782;10.356;2023-07-31T03:43:07;16.63;;;14.85;;
39982;SDS011;25670;44.782;10.356;2023-07-31T03:45:33;14.93;;;13.85;;
39982;SDS011;25670;44.782;10.356;2023-07-31T03:47:59;13.32;;;12.07;;
39982;SDS011;25670;44.782;10.356;2023-07-31T03:50:26;12.82;;;11.95;;
39982;SDS011;25670;44.782;10.356;2023-07-31T03:52:52;10.25;;;9.45;;
39982;SDS011;25670;44.782;10.356;2023-07-31T03:55:18;13.73;;;8.45;;
39982;SDS011;25670;44.782;10.356;2023-07-31T03:57:45;7.82;;;7.43;;
39982;SDS011;25670;44.782;10.356;2023-07-31T04:00:12;7.95;;;7.32;;
39982;SDS011;25670;44.782;10.356;2023-07-31T04:02:40;7.60;;;7.07;;
39982;SDS011;25670;44.782;10.356;2023-07-31T04:05:07;8.23;;;7.63;;
39982;SDS011;25670;44.782;10.356;2023-07-31T04:07:34;7.90;;;7.32;;
39982;SDS011;25670;44.782;10.356;2023-07-31T04:10:00;8.13;;;7.50;;
39982;SDS011;25670;44.782;10.356;2023-07-31T04:12:26;8.05;;;7.50;;
39982;SDS011;25670;44.782;10.356;2023-07-31T04:14:52;8.10;;;7.45;;
39982;SDS011;25670;44.782;10.356;2023-07-31T04:17:19;7.63;;;7.22;;
39982;SDS011;25670;44.782;10.356;2023-07-31T04:19:45;9.88;;;7.10;;
39982;SDS011;25670;44.782;10.356;2023-07-31T04:22:12;7.88;;;7.18;;
39982;SDS011;25670;44.782;10.356;2023-07-31T04:24:38;9.60;;;7.85;;
39982;SDS011;25670;44.782;10.356;2023-07-31T04:27:05;9.43;;;8.18;;
39982;SDS011;25670;44.782;10.356;2023-07-31T04:29:31;8.80;;;8.20;;
39982;SDS011;25670;44.782;10.356;2023-07-31T04:31:57;8.68;;;8.00;;
39982;SDS011;25670;44.782;10.356;2023-07-31T04:34:23;8.05;;;7.43;;
39982;SDS011;25670;44.782;10.356;2023-07-31T04:36:50;8.88;;;8.27;;
39982;SDS011;25670;44.782;10.356;2023-07-31T04:39:16;9.23;;;8.07;;
39982;SDS011;25670;44.782;10.356;2023-07-31T04:41:43;8.88;;;8.23;;
39982;SDS011;25670;44.782;10.356;2023-07-31T04:44:09;9.25;;;8.35;;
39982;SDS011;25670;44.782;10.356;2023-07-31T04:46:36;8.57;;;8.07;;
39982;SDS011;25670;44.782;10.356;2023-07-31T04:49:03;9.55;;;8.85;;
39982;SDS011;25670;44.782;10.356;2023-07-31T04:51:29;8.30;;;7.80;;
39982;SDS011;25670;44.782;10.356;2023-07-31T04:53:56;8.20;;;7.63;;
39982;SDS011;25670;44.782;10.356;2023-07-31T04:56:22;9.57;;;8.73;;
39982;SDS011;25670;44.782;10.356;2023-07-31T04:58:48;8.82;;;7.50;;
39982;SDS011;25670;44.782;10.356;2023-07-31T05:01:15;9.00;;;8.18;;
39982;SDS011;25670;44.782;10.356;2023-07-31T05:03:41;8.68;;;7.97;;
39982;SDS011;25670;44.782;10.356;2023-07-31T05:06:07;9.93;;;8.48;;
39982;SDS011;25670;44.782;10.356;2023-07-31T05:08:34;8.77;;;8.02;;
39982;SDS011;25670;44.782;10.356;2023-07-31T05:11:00;8.10;;;7.50;;
39982;SDS011;25670;44.782;10.356;2023-07-31T05:13:26;7.90;;;7.35;;
39982;SDS011;25670;44.782;10.356;2023-07-31T05:15:52;7.93;;;7.32;;
39982;SDS011;25670;44.782;10.356;2023-07-31T05:18:19;11.57;;;8.65;;
39982;SDS011;25670;44.782;10.356;2023-07-31T05:20:45;7.50;;;6.80;;
39982;SDS011;25670;44.782;10.356;2023-07-31T05:23:11;10.52;;;6.90;;
39982;SDS011;25670;44.782;10.356;2023-07-31T05:25:38;8.38;;;7.68;;
39982;SDS011;25670;44.782;10.356;2023-07-31T05:28:04;8.73;;;8.02;;
39982;SDS011;25670;44.782;10.356;2023-07-31T05:30:30;9.07;;;7.97;;
39982;SDS011;25670;44.782;10.356;2023-07-31T05:32:58;9.05;;;7.00;;
39982;SDS011;25670;44.782;10.356;2023-07-31T05:35:24;8.52;;;7.47;;
39982;SDS011;25670;44.782;10.356;2023-07-31T05:37:50;9.30;;;8.52;;
39982;SDS011;25670;44.782;10.356;2023-07-31T05:40:16;7.93;;;7.32;;
39982;SDS011;25670;44.782;10.356;2023-07-31T05:42:42;10.77;;;7.53;;
39982;SDS011;25670;44.782;10.356;2023-07-31T05:45:09;8.25;;;7.38;;
39982;SDS011;25670;44.782;10.356;2023-07-31T05:47:35;7.38;;;6.93;;
39982;SDS011;25670;44.782;10.356;2023-07-31T05:50:01;7.57;;;6.82;;
39982;SDS011;25670;44.782;10.356;2023-07-31T05:52:28;7.80;;;7.03;;
39982;SDS011;25670;44.782;10.356;2023-07-31T05:54:54;7.13;;;6.72;;
39982;SDS011;25670;44.782;10.356;2023-07-31T05:57:21;9.75;;;6.43;;
39982;SDS011;25670;44.782;10.356;2023-07-31T05:59:47;7.20;;;6.60;;
39982;SDS011;25670;44.782;10.356;2023-07-31T06:02:13;7.75;;;7.00;;
39982;SDS011;25670;44.782;10.356;2023-07-31T06:04:39;8.85;;;7.43;;
39982;SDS011;25670;44.782;10.356;2023-07-31T06:07:05;7.18;;;6.68;;
39982;SDS011;25670;44.782;10.356;2023-07-31T06:09:32;9.77;;;7.18;;
39982;SDS011;25670;44.782;10.356;2023-07-31T06:11:58;6.55;;;6.05;;
39982;SDS011;25670;44.782;10.356;2023-07-31T06:14:24;12.13;;;6.68;;
39982;SDS011;25670;44.782;10.356;2023-07-31T06:16:51;6.68;;;6.07;;
39982;SDS011;25670;44.782;10.356;2023-07-31T06:19:17;6.80;;;6.15;;
39982;SDS011;25670;44.782;10.356;2023-07-31T06:21:43;6.82;;;6.00;;
39982;SDS011;25670;44.782;10.356;2023-07-31T06:24:10;6.88;;;6.20;;
39982;SDS011;25670;44.782;10.356;2023-07-31T06:26:37;7.88;;;6.25;;
39982;SDS011;25670;44.782;10.356;2023-07-31T06:29:04;6.45;;;5.85;;
39982;SDS011;25670;44.782;10.356;2023-07-31T06:31:30;8.23;;;6.15;;
39982;SDS011;25670;44.782;10.356;2023-07-31T06:33:56;5.50;;;5.03;;
39982;SDS011;25670;44.782;10.356;2023-07-31T06:36:22;6.13;;;5.68;;
39982;SDS011;25670;44.782;10.356;2023-07-31T06:38:49;5.75;;;5.38;;
39982;SDS011;25670;44.782;10.356;2023-07-31T06:41:15;8.43;;;6.68;;
39982;SDS011;25670;44.782;10.356;2023-07-31T06:43:41;6.00;;;5.55;;
39982;SDS011;25670;44.782;10.356;2023-07-31T06:46:08;7.43;;;6.20;;
39982;SDS011;25670;44.782;10.356;2023-07-31T06:48:35;6.07;;;5.32;;
39982;SDS011;25670;44.782;10.356;2023-07-31T06:51:03;6.30;;;5.70;;
39982;SDS011;25670;44.782;10.356;2023-07-31T06:53:29;5.20;;;4.75;;
39982;SDS011;25670;44.782;10.356;2023-07-31T06:55:55;10.40;;;5.78;;
39982;SDS011;25670;44.782;10.356;2023-07-31T06:58:21;4.78;;;4.45;;
39982;SDS011;25670;44.782;10.356;2023-07-31T07:00:48;5.32;;;4.72;;
39982;SDS011;25670;44.782;10.356;2023-07-31T07:03:17;5.22;;;4.60;;
39982;SDS011;25670;44.782;10.356;2023-07-31T07:05:44;7.70;;;4.68;;
39982;SDS011;25670;44.782;10.356;2023-07-31T07:08:10;6.50;;;4.80;;
39982;SDS011;25670;44.782;10.356;2023-07-31T07:10:36;5.05;;;4.55;;
39982;SDS011;25670;44.782;10.356;2023-07-31T07:13:03;5.38;;;4.75;;
39982;SDS011;25670;44.782;10.356;2023-07-31T07:15:29;5.63;;;4.82;;
39982;SDS011;25670;44.782;10.356;2023-07-31T07:17:55;5.88;;;3.90;;
39982;SDS011;25670;44.782;10.356;2023-07-31T07:20:22;7.47;;;4.28;;
39982;SDS011;25670;44.782;10.356;2023-07-31T07:22:49;5.07;;;4.63;;
39982;SDS011;25670;44.782;10.356;2023-07-31T07:25:15;4.97;;;4.07;;
39982;SDS011;25670;44.782;10.356;2023-07-31T07:27:41;5.05;;;4.65;;
39982;SDS011;25670;44.782;10.356;2023-07-31T07:30:09;9.80;;;4.88;;
39982;SDS011;25670;44.782;10.356;2023-07-31T07:32:35;9.02;;;4.75;;
39982;SDS011;25670;44.782;10.356;2023-07-31T07:35:02;7.03;;;3.80;;
39982;SDS011;25670;44.782;10.356;2023-07-31T07:37:28;4.45;;;4.15;;
39982;SDS011;25670;44.782;10.356;2023-07-31T07:39:54;7.90;;;4.10;;
39982;SDS011;25670;44.782;10.356;2023-07-31T07:42:21;5.88;;;4.70;;
39982;SDS011;25670;44.782;10.356;2023-07-31T07:44:47;5.93;;;4.60;;
39982;SDS011;25670;44.782;10.356;2023-07-31T07:47:13;12.40;;;5.35;;
39982;SDS011;25670;44.782;10.356;2023-07-31T07:49:39;5.47;;;4.72;;
39982;SDS011;25670;44.782;10.356;2023-07-31T07:52:06;4.93;;;4.63;;
39982;SDS011;25670;44.782;10.356;2023-07-31T07:54:32;7.57;;;4.75;;
39982;SDS011;25670;44.782;10.356;2023-07-31T07:56:58;9.93;;;5.65;;
39982;SDS011;25670;44.782;10.356;2023-07-31T07:59:25;5.70;;;5.22;;
39982;SDS011;25670;44.782;10.356;2023-07-31T08:01:51;7.47;;;4.80;;
39982;SDS011;25670;44.782;10.356;2023-07-31T08:04:17;5.68;;;5.13;;
39982;SDS011;25670;44.782;10.356;2023-07-31T08:06:43;7.45;;;4.97;;
39982;SDS011;25670;44.782;10.356;2023-07-31T08:09:11;6.15;;;4.82;;
39982;SDS011;25670;44.782;10.356;2023-07-31T08:11:37;5.70;;;4.80;;
39982;SDS011;25670;44.782;10.356;2023-07-31T08:14:03;6.07;;;5.07;;
39982;SDS011;25670;44.782;10.356;2023-07-31T08:16:30;5.30;;;4.95;;
39982;SDS011;25670;44.782;10.356;2023-07-31T08:18:56;5.13;;;4.72;;
39982;SDS011;25670;44.782;10.356;2023-07-31T08:21:22;5.20;;;4.80;;
39982;SDS011;25670;44.782;10.356;2023-07-31T08:23:49;5.35;;;5.00;;
39982;SDS011;25670;44.782;10.356;2023-07-31T08:26:18;4.95;;;4.53;;
39982;SDS011;25670;44.782;10.356;2023-07-31T08:28:45;4.20;;;3.90;;
39982;SDS011;25670;44.782;10.356;2023-07-31T08:31:11;3.83;;;3.38;;
39982;SDS011;25670;44.782;10.356;2023-07-31T08:33:38;4.22;;;3.20;;
39982;SDS011;25670;44.782;10.356;2023-07-31T08:36:05;4.80;;;3.05;;
39982;SDS011;25670;44.782;10.356;2023-07-31T08:38:32;3.55;;;3.03;;
39982;SDS011;25670;44.782;10.356;2023-07-31T08:40:58;5.22;;;3.03;;
39982;SDS011;25670;44.782;10.356;2023-07-31T08:43:25;2.83;;;1.95;;
39982;SDS011;25670;44.782;10.356;2023-07-31T08:45:52;1.77;;;1.67;;
39982;SDS011;25670;44.782;10.356;2023-07-31T08:48:22;1.58;;;1.48;;
39982;SDS011;25670;44.782;10.356;2023-07-31T08:50:50;1.48;;;1.33;;
39982;SDS011;25670;44.782;10.356;2023-07-31T08:53:17;1.52;;;1.45;;
39982;SDS011;25670;44.782;10.356;2023-07-31T08:55:44;1.63;;;1.33;;
39982;SDS011;25670;44.782;10.356;2023-07-31T08:58:10;2.13;;;1.58;;
39982;SDS011;25670;44.782;10.356;2023-07-31T09:00:38;3.17;;;1.40;;
39982;SDS011;25670;44.782;10.356;2023-07-31T09:03:13;1.33;;;1.23;;
39982;SDS011;25670;44.782;10.356;2023-07-31T09:05:45;5.18;;;1.35;;
39982;SDS011;25670;44.782;10.356;2023-07-31T09:08:12;0.90;;;0.90;;
39982;SDS011;25670;44.782;10.356;2023-07-31T09:10:41;1.05;;;0.90;;
39982;SDS011;25670;44.782;10.356;2023-07-31T09:13:08;2.00;;;1.33;;
39982;SDS011;25670;44.782;10.356;2023-07-31T09:15:36;1.27;;;1.17;;
39982;SDS011;25670;44.782;10.356;2023-07-31T09:18:06;1.40;;;1.30;;
39982;SDS011;25670;44.782;10.356;2023-07-31T09:20:33;2.20;;;0.95;;
39982;SDS011;25670;44.782;10.356;2023-07-31T09:23:06;2.03;;;1.23;;
39982;SDS011;25670;44.782;10.356;2023-07-31T09:25:37;6.45;;;1.40;;
39982;SDS011;25670;44.782;10.356;2023-07-31T09:28:05;1.40;;;1.30;;
39982;SDS011;25670;44.782;10.356;2023-07-31T09:30:49;3.80;;;1.20;;
39982;SDS011;25670;44.782;10.356;2023-07-31T09:33:18;2.20;;;2.08;;
39982;SDS011;25670;44.782;10.356;2023-07-31T09:35:45;1.65;;;1.40;;
39982;SDS011;25670;44.782;10.356;2023-07-31T09:38:14;1.52;;;1.42;;
39982;SDS011;25670;44.782;10.356;2023-07-31T09:40:41;1.63;;;1.35;;
39982;SDS011;25670;44.782;10.356;2023-07-31T09:43:10;1.77;;;1.33;;
39982;SDS011;25670;44.782;10.356;2023-07-31T09:45:38;2.45;;;2.17;;
39982;SDS011;25670;44.782;10.356;2023-07-31T09:48:13;2.55;;;2.28;;
39982;SDS011;25670;44.782;10.356;2023-07-31T09:50:44;1.67;;;1.58;;
39982;SDS011;25670;44.782;10.356;2023-07-31T09:53:11;2.40;;;1.77;;
39982;SDS011;25670;44.782;10.356;2023-07-31T09:55:40;3.05;;;2.55;;
39982;SDS011;25670;44.782;10.356;2023-07-31T09:58:08;2.55;;;2.33;;
39982;SDS011;25670;44.782;10.356;2023-07-31T10:00:36;2.85;;;2.65;;
39982;SDS011;25670;44.782;10.356;2023-07-31T10:03:07;7.22;;;3.08;;
39982;SDS011;25670;44.782;10.356;2023-07-31T10:08:06;3.07;;;2.47;;
39982;SDS011;25670;44.782;10.356;2023-07-31T10:10:35;2.60;;;2.50;;
39982;SDS011;25670;44.782;10.356;2023-07-31T10:13:03;2.58;;;2.38;;
39982;SDS011;25670;44.782;10.356;2023-07-31T10:15:30;2.80;;;2.60;;
39982;SDS011;25670;44.782;10.356;2023-07-31T10:17:58;3.67;;;2.65;;
39982;SDS011;25670;44.782;10.356;2023-07-31T10:20:24;3.05;;;2.10;;
39982;SDS011;25670;44.782;10.356;2023-07-31T10:22:53;3.00;;;2.80;;
39982;SDS011;25670;44.782;10.356;2023-07-31T10:25:21;4.65;;;2.90;;
39982;SDS011;25670;44.782;10.356;2023-07-31T10:27:48;2.30;;;2.20;;
39982;SDS011;25670;44.782;10.356;2023-07-31T10:30:16;2.15;;;2.05;;
39982;SDS011;25670;44.782;10.356;2023-07-31T10:32:44;4.63;;;2.35;;
39982;SDS011;25670;44.782;10.356;2023-07-31T10:35:11;2.42;;;2.20;;
39982;SDS011;25670;44.782;10.356;2023-07-31T10:37:39;2.50;;;2.28;;
39982;SDS011;25670;44.782;10.356;2023-07-31T10:42:37;2.95;;;2.10;;
39982;SDS011;25670;44.782;10.356;2023-07-31T10:45:10;2.13;;;2.00;;
39982;SDS011;25670;44.782;10.356;2023-07-31T10:47:37;4.38;;;2.17;;
39982;SDS011;25670;44.782;10.356;2023-07-31T10:50:16;2.08;;;1.95;;
39982;SDS011;25670;44.782;10.356;2023-07-31T10:52:51;4.00;;;2.00;;
39982;SDS011;25670;44.782;10.356;2023-07-31T10:58:18;1.90;;;1.80;;
39982;SDS011;25670;44.782;10.356;2023-07-31T11:00:46;3.28;;;1.90;;
39982;SDS011;25670;44.782;10.356;2023-07-31T11:03:16;1.90;;;1.63;;
39982;SDS011;25670;44.782;10.356;2023-07-31T11:10:44;2.28;;;1.80;;
39982;SDS011;25670;44.782;10.356;2023-07-31T11:13:13;2.42;;;2.22;;
39982;SDS011;25670;44.782;10.356;2023-07-31T11:15:40;3.78;;;1.83;;
39982;SDS011;25670;44.782;10.356;2023-07-31T11:18:06;6.85;;;2.25;;
39982;SDS011;25670;44.782;10.356;2023-07-31T11:20:35;2.58;;;1.90;;
39982;SDS011;25670;44.782;10.356;2023-07-31T11:23:03;3.75;;;1.85;;
39982;SDS011;25670;44.782;10.356;2023-07-31T11:25:34;2.10;;;1.90;;
39982;SDS011;25670;44.782;10.356;2023-07-31T11:28:03;4.00;;;1.95;;
39982;SDS011;25670;44.782;10.356;2023-07-31T11:30:34;3.63;;;1.65;;
39982;SDS011;25670;44.782;10.356;2023-07-31T11:33:02;1.70;;;1.60;;
39982;SDS011;25670;44.782;10.356;2023-07-31T11:35:32;2.17;;;2.08;;
39982;SDS011;25670;44.782;10.356;2023-07-31T11:37:59;1.70;;;1.60;;
39982;SDS011;25670;44.782;10.356;2023-07-31T11:40:26;2.50;;;2.30;;
39982;SDS011;25670;44.782;10.356;2023-07-31T11:42:58;13.27;;;2.35;;
39982;SDS011;25670;44.782;10.356;2023-07-31T11:45:29;4.60;;;1.60;;
39982;SDS011;25670;44.782;10.356;2023-07-31T11:47:56;2.08;;;1.98;;
39982;SDS011;25670;44.782;10.356;2023-07-31T11:50:25;3.88;;;1.70;;
39982;SDS011;25670;44.782;10.356;2023-07-31T11:52:57;3.88;;;1.63;;
39982;SDS011;25670;44.782;10.356;2023-07-31T11:55:28;3.63;;;2.00;;
39982;SDS011;25670;44.782;10.356;2023-07-31T11:57:56;2.40;;;2.17;;
39982;SDS011;25670;44.782;10.356;2023-07-31T12:00:24;6.05;;;1.83;;
39982;SDS011;25670;44.782;10.356;2023-07-31T12:02:51;1.58;;;1.40;;
39982;SDS011;25670;44.782;10.356;2023-07-31T12:05:18;1.90;;;1.60;;
39982;SDS011;25670;44.782;10.356;2023-07-31T12:07:45;1.65;;;1.55;;
39982;SDS011;25670;44.782;10.356;2023-07-31T12:12:58;3.22;;;2.13;;
39982;SDS011;25670;44.782;10.356;2023-07-31T12:15:29;2.55;;;2.33;;
39982;SDS011;25670;44.782;10.356;2023-07-31T12:17:59;2.22;;;2.10;;
39982;SDS011;25670;44.782;10.356;2023-07-31T12:20:26;3.13;;;2.28;;
39982;SDS011;25670;44.782;10.356;2023-07-31T12:22:52;2.88;;;2.67;;
39982;SDS011;25670;44.782;10.356;2023-07-31T12:25:21;4.50;;;2.70;;
39982;SDS011;25670;44.782;10.356;2023-07-31T12:27:47;6.57;;;2.45;;
39982;SDS011;25670;44.782;10.356;2023-07-31T12:30:26;2.42;;;2.33;;
39982;SDS011;25670;44.782;10.356;2023-07-31T12:35:34;2.23;;;2.13;;
39982;SDS011;25670;44.782;10.356;2023-07-31T12:38:04;2.55;;;2.35;;
39982;SDS011;25670;44.782;10.356;2023-07-31T12:40:30;2.75;;;1.85;;
39982;SDS011;25670;44.782;10.356;2023-07-31T12:42:56;1.60;;;1.50;;
39982;SDS011;25670;44.782;10.356;2023-07-31T12:45:23;1.98;;;1.77;;
39982;SDS011;25670;44.782;10.356;2023-07-31T12:47:49;2.38;;;2.28;;
39982;SDS011;25670;44.782;10.356;2023-07-31T12:50:16;2.00;;;1.90;;
39982;SDS011;25670;44.782;10.356;2023-07-31T12:52:42;2.10;;;1.77;;
39982;SDS011;25670;44.782;10.356;2023-07-31T12:55:08;2.15;;;1.95;;
39982;SDS011;25670;44.782;10.356;2023-07-31T12:57:36;3.10;;;2.90;;
39982;SDS011;25670;44.782;10.356;2023-07-31T13:00:03;2.65;;;2.45;;
39982;SDS011;25670;44.782;10.356;2023-07-31T13:02:29;2.95;;;2.75;;
39982;SDS011;25670;44.782;10.356;2023-07-31T13:04:55;3.42;;;2.35;;
39982;SDS011;25670;44.782;10.356;2023-07-31T13:07:22;2.25;;;2.13;;
39982;SDS011;25670;44.782;10.356;2023-07-31T13:09:48;2.40;;;2.20;;
39982;SDS011;25670;44.782;10.356;2023-07-31T13:12:14;6.30;;;2.50;;
39982;SDS011;25670;44.782;10.356;2023-07-31T13:14:41;5.18;;;2.85;;
39982;SDS011;25670;44.782;10.356;2023-07-31T13:17:07;3.38;;;2.40;;
39982;SDS011;25670;44.782;10.356;2023-07-31T13:19:33;2.88;;;2.58;;
39982;SDS011;25670;44.782;10.356;2023-07-31T13:21:59;6.25;;;3.08;;
39982;SDS011;25670;44.782;10.356;2023-07-31T13:24:25;3.17;;;1.98;;
39982;SDS011;25670;44.782;10.356;2023-07-31T13:26:52;2.47;;;1.92;;
39982;SDS011;25670;44.782;10.356;2023-07-31T13:29:18;2.15;;;1.95;;
39982;SDS011;25670;44.782;10.356;2023-07-31T13:31:44;2.97;;;2.33;;
39982;SDS011;25670;44.782;10.356;2023-07-31T13:34:10;1.95;;;1.85;;
39982;SDS011;25670;44.782;10.356;2023-07-31T13:36:37;2.35;;;2.25;;
39982;SDS011;25670;44.782;10.356;2023-07-31T13:39:03;3.58;;;2.30;;
39982;SDS011;25670;44.782;10.356;2023-07-31T13:41:29;3.28;;;2.45;;
39982;SDS011;25670;44.782;10.356;2023-07-31T13:43:56;2.22;;;2.13;;
39982;SDS011;25670;44.782;10.356;2023-07-31T13:46:22;2.17;;;1.92;;
39982;SDS011;25670;44.782;10.356;2023-07-31T13:48:48;2.25;;;2.15;;
39982;SDS011;25670;44.782;10.356;2023-07-31T13:51:14;2.20;;;2.10;;
39982;SDS011;25670;44.782;10.356;2023-07-31T13:53:41;2.20;;;2.03;;
39982;SDS011;25670;44.782;10.356;2023-07-31T13:56:07;2.55;;;2.30;;
39982;SDS011;25670;44.782;10.356;2023-07-31T13:58:33;2.70;;;2.50;;
39982;SDS011;25670;44.782;10.356;2023-07-31T14:00:59;2.63;;;2.42;;
39982;SDS011;25670;44.782;10.356;2023-07-31T14:03:26;2.53;;;2.08;;
39982;SDS011;25670;44.782;10.356;2023-07-31T14:05:52;5.57;;;2.42;;
39982;SDS011;25670;44.782;10.356;2023-07-31T14:08:19;2.30;;;2.15;;
39982;SDS011;25670;44.782;10.356;2023-07-31T14:10:45;2.30;;;2.20;;
39982;SDS011;25670;44.782;10.356;2023-07-31T14:13:11;2.10;;;2.00;;
39982;SDS011;25670;44.782;10.356;2023-07-31T14:15:37;2.67;;;2.42;;
39982;SDS011;25670;44.782;10.356;2023-07-31T14:18:05;2.10;;;2.00;;
39982;SDS011;25670;44.782;10.356;2023-07-31T14:20:31;3.78;;;2.20;;
39982;SDS011;25670;44.782;10.356;2023-07-31T14:22:57;3.38;;;2.20;;
39982;SDS011;25670;44.782;10.356;2023-07-31T14:25:24;3.03;;;2.60;;
39982;SDS011;25670;44.782;10.356;2023-07-31T14:27:50;2.72;;;2.53;;
39982;SDS011;25670;44.782;10.356;2023-07-31T14:30:17;2.88;;;2.67;;
39982;SDS011;25670;44.782;10.356;2023-07-31T14:32:44;2.55;;;2.45;;
39982;SDS011;25670;44.782;10.356;2023-07-31T14:35:10;2.60;;;2.45;;
39982;SDS011;25670;44.782;10.356;2023-07-31T14:37:36;2.75;;;1.83;;
39982;SDS011;25670;44.782;10.356;2023-07-31T14:40:08;3.92;;;2.13;;
39982;SDS011;25670;44.782;10.356;2023-07-31T14:42:35;2.10;;;2.00;;
39982;SDS011;25670;44.782;10.356;2023-07-31T14:45:03;2.40;;;2.15;;
39982;SDS011;25670;44.782;10.356;2023-07-31T14:47:30;2.30;;;2.13;;
39982;SDS011;25670;44.782;10.356;2023-07-31T14:49:57;1.90;;;1.80;;
39982;SDS011;25670;44.782;10.356;2023-07-31T14:52:24;2.35;;;2.13;;
39982;SDS011;25670;44.782;10.356;2023-07-31T14:54:51;2.08;;;1.98;;
39982;SDS011;25670;44.782;10.356;2023-07-31T14:57:17;1.85;;;1.75;;
39982;SDS011;25670;44.782;10.356;2023-07-31T14:59:44;4.32;;;1.63;;